Time;durP1;ratioP1;P1;durP2;ratioP2;P2;SDS_P1;SDS_P2;PMS_P1;PMS_P2;Temp;Humidity;BMP_temperature;BMP_pressure;BME280_temperature;BME280_humidity;BME280_pressure;Samples;Min_cycle;Max_cycle;Signal;HPM_P1;HPM_P2
2021/04/08 00:01:25;;;;;;;6.90;4.28;;;;;;;0.89;67.48;96996.34;5096912;28;20036;-77
2021/04/08 00:03:51;;;;;;;5.85;4.18;;;;;;;0.89;67.62;96999.72;5097078;28;20491;-77
2021/04/08 00:06:17;;;;;;;6.40;4.47;;;;;;;0.91;67.61;96997.81;5096749;28;20392;-77
2021/04/08 00:08:43;;;;;;;5.45;4.30;;;;;;;0.92;67.57;96998.63;5097011;28;20399;-77
2021/04/08 00:11:10;;;;;;;4.70;3.97;;;;;;;0.93;67.52;97002.84;5096697;28;20032;-77
2021/04/08 00:13:36;;;;;;;4.88;4.25;;;;;;;0.96;67.65;97011.09;5097185;28;20036;-77
2021/04/08 00:16:03;;;;;;;4.45;4.00;;;;;;;0.99;67.57;97005.66;5096953;28;20043;-77
2021/04/08 00:18:30;;;;;;;5.28;3.97;;;;;;;1.02;67.48;97012.31;5096628;28;20487;-77
2021/04/08 00:20:56;;;;;;;4.93;4.13;;;;;;;0.97;67.26;96999.03;5096357;28;20491;-77
2021/04/08 00:23:22;;;;;;;4.80;4.03;;;;;;;0.98;67.42;97009.19;5096974;28;20058;-77
2021/04/08 00:25:48;;;;;;;5.95;4.32;;;;;;;0.99;67.51;97010.84;5095481;28;20449;-77
2021/04/08 00:28:15;;;;;;;5.25;3.95;;;;;;;1.02;67.47;97007.94;5096629;28;20036;-77
2021/04/08 00:30:45;;;;;;;5.55;4.00;;;;;;;1.03;67.56;97008.78;5096716;28;20036;-77
2021/04/08 00:33:16;;;;;;;4.80;4.25;;;;;;;1.02;67.56;97002.78;5096946;28;20036;-77
2021/04/08 00:35:43;;;;;;;5.93;3.97;;;;;;;1.04;67.46;97002.66;5067410;28;20039;-77
2021/04/08 00:38:10;;;;;;;4.82;3.75;;;;;;;1.04;67.61;97018.16;5096155;28;20040;-77
2021/04/08 00:40:36;;;;;;;7.30;4.80;;;;;;;1.02;67.58;97007.94;5095984;28;20044;-77
2021/04/08 00:43:03;;;;;;;4.15;3.80;;;;;;;1.03;67.62;97016.53;5078179;28;20024;-77
2021/04/08 00:45:30;;;;;;;6.88;4.05;;;;;;;1.04;67.80;97010.41;5096294;28;20046;-77
2021/04/08 00:47:56;;;;;;;6.38;4.10;;;;;;;1.06;67.89;97013.66;5096132;28;20032;-77
2021/04/08 00:50:23;;;;;;;4.45;4.03;;;;;;;1.06;67.65;97010.25;5096465;28;20036;-77
2021/04/08 00:53:02;;;;;;;8.45;3.78;;;;;;;1.01;67.58;97016.66;5095970;28;20480;-77
2021/04/08 00:55:33;;;;;;;6.28;4.50;;;;;;;1.00;67.56;97017.59;5096030;28;20057;-77
2021/04/08 00:58:02;;;;;;;4.97;3.88;;;;;;;1.04;67.68;97009.59;5096662;28;20487;-77
2021/04/08 01:00:29;;;;;;;5.65;4.20;;;;;;;1.06;67.53;97025.75;5096094;28;20036;-77
2021/04/08 01:02:56;;;;;;;4.82;4.00;;;;;;;1.06;67.63;97021.41;5095038;28;20052;-77
2021/04/08 01:05:22;;;;;;;4.13;3.72;;;;;;;1.07;67.55;97017.03;5095796;28;20028;-77
2021/04/08 01:07:50;;;;;;;4.63;4.10;;;;;;;1.06;67.37;97021.41;5094992;28;20044;-77
2021/04/08 01:10:18;;;;;;;6.32;4.20;;;;;;;1.09;67.50;97034.03;5096482;28;20387;-77
2021/04/08 01:12:47;;;;;;;6.32;3.90;;;;;;;1.09;67.63;97031.47;5095689;28;20036;-77
2021/04/08 01:15:13;;;;;;;6.05;4.20;;;;;;;1.11;67.57;97028.72;5095715;28;20040;-77
2021/04/08 01:17:58;;;;;;;5.03;4.40;;;;;;;1.12;67.43;97030.34;5095900;28;20397;-77
2021/04/08 01:20:43;;;;;;;;;;;;;;;1.12;67.10;97033.75;5096106;28;20028;-77
2021/04/08 01:23:34;;;;;;;4.70;3.67;;;;;;;1.15;67.50;97037.81;5077268;28;19920;-77
2021/04/08 01:26:37;;;;;;;7.30;4.40;;;;;;;1.18;67.59;97032.34;5094584;28;20055;-77
2021/04/08 01:29:23;;;;;;;4.50;3.95;;;;;;;1.18;67.67;97029.78;5083162;28;20044;-77
2021/04/08 01:31:52;;;;;;;4.32;3.70;;;;;;;1.17;67.39;97028.94;5095592;28;20373;-77
2021/04/08 01:34:21;;;;;;;6.90;4.63;;;;;;;1.18;67.60;97032.34;5095371;28;20055;-77
2021/04/08 01:36:53;;;;;;;3.95;3.60;;;;;;;1.17;67.40;97038.47;5095433;28;20035;-77
2021/04/08 01:39:20;;;;;;;8.10;4.22;;;;;;;1.18;67.27;97040.09;5094121;28;20043;-77
2021/04/08 01:41:48;;;;;;;4.72;4.05;;;;;;;1.19;67.23;97039.94;5095069;28;20043;-77
2021/04/08 01:44:18;;;;;;;4.93;4.05;;;;;;;1.20;67.26;97046.75;5094575;28;20044;-77
2021/04/08 01:46:49;;;;;;;5.20;4.00;;;;;;;1.23;67.15;97050.81;5076957;28;20035;-77
2021/04/08 01:49:18;;;;;;;6.13;3.72;;;;;;;1.26;67.18;97052.28;5094232;28;20036;-77
2021/04/08 01:51:45;;;;;;;5.85;3.90;;;;;;;1.25;66.87;97050.69;5094985;28;20028;-77
2021/04/08 01:54:14;;;;;;;6.15;4.28;;;;;;;1.21;66.83;97050.94;5094785;28;20431;-77
2021/04/08 01:56:42;;;;;;;4.65;3.83;;;;;;;1.23;66.88;97055.97;5095249;28;20043;-77
2021/04/08 01:59:13;;;;;;;4.07;3.35;;;;;;;1.20;66.53;97048.53;5094808;28;20043;-77
2021/04/08 02:01:43;;;;;;;3.38;3.08;;;;;;;1.20;66.80;97058.88;5094606;28;20047;-77
2021/04/08 02:04:12;;;;;;;4.22;3.22;;;;;;;1.20;66.78;97049.34;5094792;28;20036;-77
2021/04/08 02:06:41;;;;;;;7.00;3.88;;;;;;;1.21;66.73;97065.66;5093870;28;20496;-77
2021/04/08 02:09:07;;;;;;;4.00;3.60;;;;;;;1.21;66.93;97060.47;5094494;28;20050;-77
2021/04/08 02:11:36;;;;;;;3.67;3.33;;;;;;;1.23;66.78;97063.72;5094267;28;20044;-77
2021/04/08 02:14:03;;;;;;;4.03;3.53;;;;;;;1.26;66.89;97065.22;5085189;28;20492;-77
2021/04/08 02:16:30;;;;;;;3.95;3.55;;;;;;;1.28;67.09;97061.53;5094303;28;20051;-77
2021/04/08 02:18:58;;;;;;;3.90;3.22;;;;;;;1.28;66.81;97056.38;5076093;28;20040;-77
2021/04/08 02:21:25;;;;;;;4.57;3.15;;;;;;;1.30;66.73;97069.13;5093767;28;20465;-77
2021/04/08 02:23:52;;;;;;;8.30;3.65;;;;;;;1.30;66.91;97064.78;5094390;28;20055;-77
2021/04/08 02:26:19;;;;;;;3.90;3.50;;;;;;;1.30;66.59;97064.78;5094305;28;20063;-77
2021/04/08 02:28:47;;;;;;;4.57;3.53;;;;;;;1.30;66.65;97062.22;5093987;28;20054;-77
2021/04/08 02:31:13;;;;;;;6.03;3.58;;;;;;;1.33;66.55;97074.03;5094559;28;20043;-77
2021/04/08 02:33:40;;;;;;;3.72;3.22;;;;;;;1.33;66.49;97072.25;5093994;28;20047;-77
2021/04/08 02:36:07;;;;;;;4.03;3.58;;;;;;;1.34;66.50;97067.88;5094621;28;20036;-77
2021/04/08 02:38:36;;;;;;;5.72;3.50;;;;;;;1.31;66.40;97066.41;5076471;28;20040;-77
2021/04/08 02:41:05;;;;;;;3.38;3.08;;;;;;;1.31;66.29;97068.19;5093824;28;20032;-77
2021/04/08 02:43:32;;;;;;;3.50;3.20;;;;;;;1.34;66.41;97083.38;5094359;28;20039;-77
2021/04/08 02:45:58;;;;;;;4.38;3.30;;;;;;;1.34;66.44;97079.03;5093930;28;20044;-77
2021/04/08 02:48:25;;;;;;;6.32;3.42;;;;;;;1.35;66.35;97080.66;5075892;28;20040;-77
2021/04/08 02:50:53;;;;;;;4.63;3.45;;;;;;;1.33;66.49;97077.41;5093910;28;20028;-77
2021/04/08 02:53:44;;;;;;;4.40;3.58;;;;;;;1.34;66.53;97081.63;5094043;28;20057;-77
2021/04/08 02:56:57;;;;;;;3.25;2.95;;;;;;;1.28;65.52;97082.22;5079929;28;20468;-77
2021/04/08 02:59:27;;;;;;;3.65;2.60;;;;;;;1.19;65.63;97083.88;5085322;28;20369;-77
2021/04/08 03:01:58;;;;;;;2.45;2.25;;;;;;;1.15;65.68;97089.47;5080542;28;20032;-77
2021/04/08 03:04:24;;;;;;;2.42;2.22;;;;;;;1.12;65.42;97087.19;5094307;28;20483;-77
2021/04/08 03:06:52;;;;;;;2.83;2.22;;;;;;;1.11;65.47;97088.94;5093119;28;20059;-77
2021/04/08 03:09:31;;;;;;;4.90;2.45;;;;;;;1.12;65.07;97087.19;5093640;28;20028;-77
2021/04/08 03:12:01;;;;;;;3.90;2.28;;;;;;;1.15;65.59;97092.03;5093205;28;20048;-77
2021/04/08 03:14:28;;;;;;;4.38;2.63;;;;;;;1.14;65.59;97093.03;5093567;28;20388;-77
2021/04/08 03:16:58;;;;;;;3.63;2.25;;;;;;;1.13;65.43;97099.13;5075447;28;20032;-77
2021/04/08 03:19:27;;;;;;;3.45;2.30;;;;;;;1.09;65.44;97106.38;5094010;28;20039;-77
2021/04/08 03:21:54;;;;;;;2.72;2.30;;;;;;;1.06;65.65;97101.47;5093385;28;20055;-77
2021/04/08 03:24:22;;;;;;;3.10;2.10;;;;;;;0.99;65.36;97103.00;5093550;28;20503;-77
2021/04/08 03:26:49;;;;;;;2.58;2.00;;;;;;;0.95;65.35;97096.50;5092706;28;20438;-77
2021/04/08 03:29:16;;;;;;;2.33;2.13;;;;;;;0.92;65.34;97102.72;5093085;28;20033;-77
2021/04/08 03:31:44;;;;;;;6.32;2.28;;;;;;;0.92;65.60;97102.72;5093536;28;20039;-77
2021/04/08 03:34:12;;;;;;;3.78;2.17;;;;;;;0.93;65.37;97099.19;5075043;28;20044;-77
2021/04/08 03:36:39;;;;;;;3.92;2.08;;;;;;;0.94;65.28;97098.25;5093418;28;20039;-77
2021/04/08 03:39:07;;;;;;;5.15;2.20;;;;;;;0.94;65.27;97105.97;5093372;28;20044;-77
2021/04/08 03:41:42;;;;;;;2.92;2.08;;;;;;;0.97;65.03;97105.72;5091948;28;20044;-77
2021/04/08 03:44:11;;;;;;;3.05;1.85;;;;;;;0.97;65.30;97113.47;5093566;28;20032;-77
2021/04/08 03:46:39;;;;;;;2.95;2.15;;;;;;;1.00;65.29;97112.38;5093178;28;20047;-77
2021/04/08 03:49:08;;;;;;;2.90;1.77;;;;;;;0.99;65.18;97111.56;5093441;28;20036;-77
2021/04/08 03:51:36;;;;;;;4.45;1.98;;;;;;;1.02;65.22;97113.03;5092997;28;20396;-77
2021/04/08 03:54:06;;;;;;;2.33;2.10;;;;;;;1.04;65.11;97105.16;5092046;28;20040;-77
2021/04/08 03:56:39;;;;;;;3.38;1.80;;;;;;;1.04;65.23;97115.50;5078397;28;20039;-77
2021/04/08 03:59:06;;;;;;;3.20;2.20;;;;;;;1.03;65.39;97114.69;5093426;28;20052;-77
2021/04/08 04:01:37;;;;;;;4.35;2.28;;;;;;;1.06;65.13;97119.53;5092854;28;20282;-77
2021/04/08 04:04:13;;;;;;;3.85;2.58;;;;;;;1.05;65.21;97111.94;5093160;28;20040;-77
2021/04/08 04:06:43;;;;;;;4.03;2.00;;;;;;;1.04;65.15;97111.13;5093109;28;20411;-77
2021/04/08 04:09:11;;;;;;;3.60;1.92;;;;;;;1.04;65.29;97115.50;5092891;28;20038;-77
2021/04/08 04:11:43;;;;;;;2.50;2.00;;;;;;;1.02;64.95;97131.94;5091647;28;20039;-77
2021/04/08 04:14:13;;;;;;;3.47;1.92;;;;;;;1.00;65.04;97126.09;5092783;28;20476;-77
2021/04/08 04:16:47;;;;;;;3.30;1.88;;;;;;;1.01;65.13;97125.16;5092586;28;20025;-77
2021/04/08 04:19:13;;;;;;;2.70;2.10;;;;;;;0.98;64.98;97127.19;5092908;28;20036;-77
2021/04/08 04:21:40;;;;;;;3.25;1.83;;;;;;;0.96;64.98;97126.50;5093251;28;20396;-77
2021/04/08 04:24:07;;;;;;;4.03;2.17;;;;;;;0.96;65.01;97132.47;5092027;28;20048;-77
2021/04/08 04:26:34;;;;;;;3.22;2.08;;;;;;;0.95;64.86;97127.47;5073718;28;20503;-77
2021/04/08 04:29:00;;;;;;;3.90;2.30;;;;;;;0.98;65.13;97128.00;5092195;28;20059;-77
2021/04/08 04:31:26;;;;;;;5.15;2.40;;;;;;;0.99;64.98;97131.41;5092675;28;20040;-77
2021/04/08 04:33:53;;;;;;;1.95;1.83;;;;;;;1.00;64.82;97130.44;5092499;28;20044;-77
2021/04/08 04:36:19;;;;;;;3.50;1.90;;;;;;;1.02;64.60;97134.50;5093297;28;20039;-77
2021/04/08 04:38:46;;;;;;;4.72;1.88;;;;;;;1.01;64.72;97139.84;5093203;28;20401;-77
2021/04/08 04:41:12;;;;;;;6.28;1.73;;;;;;;0.98;64.62;97151.22;5091803;28;20052;-77
2021/04/08 04:43:40;;;;;;;5.30;2.10;;;;;;;0.98;64.50;97150.44;5094474;28;20464;-77
2021/04/08 04:46:08;;;;;;;3.80;1.95;;;;;;;0.96;64.55;97144.59;5095981;28;20468;-77
2021/04/08 04:48:35;;;;;;;2.60;2.40;;;;;;;0.95;64.48;97148.94;5095998;28;20449;-77
2021/04/08 04:51:02;;;;;;;4.00;1.88;;;;;;;0.95;64.39;97151.53;5096303;28;20419;-77
2021/04/08 04:53:28;;;;;;;2.72;1.50;;;;;;;0.95;64.06;97148.94;5095908;28;20024;-78
2021/04/08 04:55:54;;;;;;;4.20;1.98;;;;;;;0.96;64.18;97165.25;5095540;28;20055;-77
2021/04/08 04:58:21;;;;;;;2.08;1.88;;;;;;;0.96;64.23;97162.66;5095922;28;20380;-78
2021/04/08 05:00:47;;;;;;;4.07;2.00;;;;;;;0.96;64.35;97157.50;5094899;28;20059;-77
2021/04/08 05:03:13;;;;;;;4.75;2.33;;;;;;;0.96;64.23;97160.09;5077911;28;20487;-77
2021/04/08 05:05:39;;;;;;;5.00;1.55;;;;;;;0.97;64.04;97169.47;5096105;28;20396;-77
2021/04/08 05:08:05;;;;;;;3.90;1.73;;;;;;;0.96;64.09;97167.84;5095816;28;20040;-77
2021/04/08 05:10:31;;;;;;;5.40;1.90;;;;;;;0.96;63.86;97167.84;5077934;28;20040;-77
2021/04/08 05:12:58;;;;;;;2.47;1.80;;;;;;;0.97;63.98;97178.03;5096242;28;20040;-77
2021/04/08 05:15:24;;;;;;;4.45;2.10;;;;;;;0.97;63.91;97178.03;5095600;28;20032;-77
2021/04/08 05:17:50;;;;;;;4.72;2.03;;;;;;;0.96;63.80;97176.38;5095887;28;20076;-78
2021/04/08 05:20:16;;;;;;;5.07;1.88;;;;;;;0.98;63.89;97176.25;5094703;28;20115;-77
2021/04/08 05:22:43;;;;;;;2.40;1.58;;;;;;;1.00;63.78;97176.94;5095388;28;20400;-77
2021/04/08 05:25:10;;;;;;;5.20;1.90;;;;;;;1.03;63.78;97174.09;5095515;28;20044;-77
2021/04/08 05:27:36;;;;;;;4.45;2.20;;;;;;;1.10;63.84;97180.31;5095517;28;20039;-77
2021/04/08 05:30:03;;;;;;;3.28;2.03;;;;;;;1.13;63.70;97179.22;5094581;28;20044;-77
2021/04/08 05:32:29;;;;;;;3.30;1.60;;;;;;;1.18;63.61;97182.19;5095598;28;20044;-77
2021/04/08 05:34:56;;;;;;;5.43;2.45;;;;;;;1.20;63.68;97178.50;5095514;28;20048;-77
2021/04/08 05:37:22;;;;;;;3.45;2.40;;;;;;;1.20;63.37;97186.25;5095456;28;20047;-77
2021/04/08 05:39:48;;;;;;;4.00;1.85;;;;;;;1.22;63.42;97186.13;5077082;28;20464;-77
2021/04/08 05:42:14;;;;;;;2.80;1.48;;;;;;;1.25;63.36;97190.19;5094406;28;20472;-77
2021/04/08 05:44:40;;;;;;;4.63;1.90;;;;;;;1.30;63.27;97194.00;5094986;28;20036;-77
2021/04/08 05:47:07;;;;;;;3.30;2.22;;;;;;;1.32;63.09;97197.22;5077565;28;20377;-77
2021/04/08 05:49:33;;;;;;;3.67;2.42;;;;;;;1.35;63.13;97185.81;5094979;28;20036;-77
2021/04/08 05:51:59;;;;;;;85.03;30.55;;;;;;;1.37;62.05;97189.88;5077273;28;20396;-77
2021/04/08 05:54:25;;;;;;;;;;;;;;;1.40;61.67;97199.13;5095272;28;20071;-77
2021/04/08 05:56:51;;;;;;;110.07;35.38;;;;;;;1.40;61.82;97188.78;5075453;28;21010;-77
2021/04/08 05:59:17;;;;;;;;;;;;;;;1.43;61.64;97193.69;5095019;28;20072;-77
2021/04/08 06:01:43;;;;;;;71.07;25.77;;;;;;;1.44;61.67;97195.28;5093202;28;20437;-77
2021/04/08 06:04:09;;;;;;;;;;;;;;;1.47;61.87;97197.59;5095485;28;20092;-77
2021/04/08 06:06:36;;;;;;;88.32;29.38;;;;;;;1.47;61.99;97200.19;5074859;28;20438;-77
2021/04/08 06:09:02;;;;;;;;;;;;;;;1.49;61.68;97198.28;5094924;28;20088;-77
2021/04/08 06:11:28;;;;;;;;;;;;;;;1.50;61.49;97194.72;5094218;28;19965;-77
2021/04/08 06:13:55;;;;;;;84.05;28.60;;;;;;;1.51;61.36;97196.38;5094020;28;20842;-78
2021/04/08 06:16:21;;;;;;;;;;;;;;;1.52;61.57;97200.56;5077149;28;20526;-77
2021/04/08 06:18:47;;;;;;;4.75;2.78;;;;;;;1.67;63.52;97213.84;5093553;28;20463;-78
2021/04/08 06:21:14;;;;;;;4.18;3.08;;;;;;;1.74;62.44;97214.06;5094205;28;20060;-78
2021/04/08 06:23:40;;;;;;;7.72;3.13;;;;;;;1.81;62.36;97208.19;5093857;28;20060;-78
2021/04/08 06:26:07;;;;;;;4.53;2.47;;;;;;;1.93;62.07;97215.75;5094250;28;20040;-77
2021/04/08 06:28:33;;;;;;;2.83;2.17;;;;;;;1.99;61.75;97212.59;5094111;28;20040;-78
2021/04/08 06:30:59;;;;;;;4.53;2.28;;;;;;;2.06;61.42;97210.25;5094244;28;20040;-78
2021/04/08 06:33:29;;;;;;;2.53;2.00;;;;;;;2.12;61.25;97209.66;5094724;28;20039;-78
2021/04/08 06:35:55;;;;;;;4.40;2.78;;;;;;;2.13;61.21;97209.53;5093921;28;20480;-78
2021/04/08 06:38:22;;;;;;;4.22;1.73;;;;;;;2.13;61.08;97216.47;5092676;28;20040;-77
2021/04/08 06:40:48;;;;;;;5.57;2.20;;;;;;;2.13;60.87;97209.53;5094108;28;20408;-78
2021/04/08 06:43:14;;;;;;;10.95;2.30;;;;;;;2.16;60.73;97218.75;5093740;28;20040;-77
2021/04/08 06:45:47;;;;;;;5.50;2.00;;;;;;;2.22;60.24;97210.41;5093995;28;20044;-78
2021/04/08 06:48:23;;;;;;;4.18;1.83;;;;;;;2.33;59.80;97211.97;5093863;28;20464;-78
2021/04/08 06:50:52;;;;;;;5.70;2.22;;;;;;;2.39;60.20;97213.97;5093983;28;20032;-78
2021/04/08 06:53:18;;;;;;;4.40;1.77;;;;;;;2.41;59.83;97209.47;5075783;28;20039;-77
2021/04/08 06:55:47;;;;;;;5.50;1.90;;;;;;;2.51;59.72;97214.59;5093821;28;20032;-76
2021/04/08 06:58:14;;;;;;;3.47;2.45;;;;;;;2.96;60.27;97221.41;5093107;28;20468;-76
2021/04/08 07:00:41;;;;;;;4.38;2.33;;;;;;;3.24;59.53;97211.75;5093680;28;20042;-76
2021/04/08 07:03:08;;;;;;;4.93;2.28;;;;;;;3.44;59.04;97209.75;5093774;28;20392;-76
2021/04/08 07:05:35;;;;;;;4.13;2.38;;;;;;;3.52;58.75;97206.38;5093151;28;20036;-77
2021/04/08 07:08:01;;;;;;;2.80;1.98;;;;;;;3.49;58.43;97207.50;5092609;28;20043;-77
2021/04/08 07:10:28;;;;;;;3.08;2.00;;;;;;;3.43;58.34;97208.94;5094184;28;20039;-77
2021/04/08 07:12:55;;;;;;;6.45;2.35;;;;;;;3.33;57.88;97218.59;5093505;28;20032;-77
2021/04/08 07:15:23;;;;;;;5.10;2.10;;;;;;;3.16;57.53;97209.91;5093626;28;20054;-77
2021/04/08 07:17:50;;;;;;;3.47;2.17;;;;;;;3.01;57.74;97212.25;5093647;28;20036;-77
2021/04/08 07:20:16;;;;;;;2.67;2.00;;;;;;;2.92;57.79;97212.31;5093300;28;20039;-77
2021/04/08 07:22:43;;;;;;;4.47;2.30;;;;;;;2.92;58.47;97213.16;5093757;28;20075;-77
2021/04/08 07:25:21;;;;;;;6.05;2.40;;;;;;;3.03;56.33;97212.09;5093396;28;20048;-77
2021/04/08 07:27:47;;;;;;;4.18;1.88;;;;;;;3.08;57.58;97216.81;5075492;28;20055;-77
2021/04/08 07:30:18;;;;;;;4.70;2.22;;;;;;;3.18;57.04;97217.53;5093005;28;20044;-77
2021/04/08 07:32:57;;;;;;;4.63;2.40;;;;;;;3.25;56.58;97216.78;5093431;28;20395;-77
2021/04/08 07:35:23;;;;;;;3.45;2.10;;;;;;;3.29;57.38;97224.25;5075332;28;20031;-79
2021/04/08 07:37:57;;;;;;;3.03;2.47;;;;;;;3.24;55.09;97206.56;5075163;28;20040;-79
2021/04/08 07:40:26;;;;;;;3.30;2.10;;;;;;;3.20;56.64;97221.59;5093210;28;20039;-79
2021/04/08 07:42:53;;;;;;;2.88;2.05;;;;;;;3.14;56.58;97224.78;5092886;28;20040;-79
2021/04/08 07:45:27;;;;;;;4.80;1.98;;;;;;;3.15;55.75;97231.63;5093147;28;20040;-79
2021/04/08 07:48:05;;;;;;;2.92;2.33;;;;;;;3.21;55.82;97228.41;5093093;28;20028;-80
2021/04/08 07:50:33;;;;;;;3.58;2.10;;;;;;;3.24;56.54;97230.69;5092866;28;20040;-79
2021/04/08 07:53:00;;;;;;;2.60;2.17;;;;;;;3.27;56.60;97237.34;5093431;28;20036;-79
2021/04/08 07:55:29;;;;;;;2.55;1.83;;;;;;;3.33;55.98;97228.97;5074015;28;20436;-79
2021/04/08 07:58:07;;;;;;;3.13;1.95;;;;;;;3.40;55.34;97245.56;5093027;28;20036;-79
2021/04/08 08:00:51;;;;;;;2.92;2.15;;;;;;;3.52;55.62;97237.50;5075569;28;20045;-80
2021/04/08 08:03:23;;;;;;;5.35;2.35;;;;;;;3.62;55.37;97235.63;5075018;28;20024;-80
2021/04/08 08:05:51;;;;;;;5.40;3.28;;;;;;;3.69;55.55;97238.41;5092866;28;20378;-79
2021/04/08 08:08:18;;;;;;;3.28;2.20;;;;;;;3.84;55.49;97235.09;5092821;28;20032;-80
2021/04/08 08:10:59;;;;;;;3.70;1.83;;;;;;;3.98;53.25;97218.09;5092523;28;20047;-79
2021/04/08 08:13:47;;;;;;;5.35;3.00;;;;;;;4.04;54.43;97219.25;5082354;28;20043;-80
2021/04/08 08:16:18;;;;;;;4.20;2.50;;;;;;;3.99;54.16;97217.13;5081375;28;20044;-80
2021/04/08 08:18:45;;;;;;;4.28;2.67;;;;;;;4.01;54.45;97233.38;5076788;28;20348;-80
2021/04/08 08:21:17;;;;;;;3.40;2.22;;;;;;;4.03;53.33;97215.03;5078462;28;20380;-80
2021/04/08 08:23:51;;;;;;;3.80;2.20;;;;;;;4.00;52.92;97210.97;5096606;28;20396;-80
2021/04/08 08:26:37;;;;;;;4.13;2.30;;;;;;;4.12;53.84;97223.66;5097171;28;20047;-80
2021/04/08 08:29:06;;;;;;;5.50;2.63;;;;;;;4.41;53.36;97210.25;5087017;28;20043;-80
2021/04/08 08:31:39;;;;;;;5.07;2.20;;;;;;;4.76;53.90;97214.34;5078398;28;20043;-80
2021/04/08 08:34:09;;;;;;;3.00;1.87;;;;;;;5.54;55.85;97230.34;5078156;28;20082;-78
2021/04/08 08:36:37;;;;;;;2.95;2.42;;;;;;;6.01;52.05;97185.34;5096341;28;20749;-79
2021/04/08 08:39:09;;;;;;;5.07;2.35;;;;;;;6.08;49.73;97168.84;5096319;28;20024;-79
2021/04/08 08:41:37;;;;;;;5.28;1.95;;;;;;;6.22;51.23;97179.53;5095343;28;20044;-79
2021/04/08 08:44:09;;;;;;;4.40;1.80;;;;;;;6.18;47.43;97160.00;5095426;28;20063;-79
2021/04/08 08:46:46;;;;;;;4.68;2.28;;;;;;;6.06;47.84;97159.56;5078313;28;20047;-80
2021/04/08 08:49:18;;;;;;;3.28;1.90;;;;;;;6.00;49.74;97184.50;5096422;28;20036;-78
2021/04/08 08:51:46;;;;;;;3.17;1.92;;;;;;;6.16;49.69;97185.41;5096436;28;20040;-78
2021/04/08 08:54:12;;;;;;;4.65;2.30;;;;;;;6.69;49.77;97196.78;5095987;28;20028;-79
2021/04/08 08:56:40;;;;;;;3.28;2.00;;;;;;;7.14;49.03;97195.13;5096182;28;20036;-79
2021/04/08 08:59:07;;;;;;;3.13;2.63;;;;;;;7.48;47.73;97219.91;5077252;28;20044;-79
2021/04/08 09:01:35;;;;;;;5.07;2.22;;;;;;;7.71;47.06;97225.84;5095847;28;20039;-78
2021/04/08 09:04:03;;;;;;;3.70;2.42;;;;;;;7.89;47.00;97235.09;5096137;28;20040;-78
2021/04/08 09:06:31;;;;;;;4.35;2.30;;;;;;;8.05;46.33;97227.06;5095747;28;20047;-79
2021/04/08 09:09:09;;;;;;;2.85;1.73;;;;;;;8.29;45.75;97246.03;5095169;28;20476;-78
2021/04/08 09:11:38;;;;;;;4.38;2.10;;;;;;;8.42;45.00;97246.25;5095859;28;20092;-79
2021/04/08 09:14:05;;;;;;;5.00;2.15;;;;;;;8.63;44.80;97257.69;5082927;28;20063;-79
2021/04/08 09:16:41;;;;;;;4.18;2.20;;;;;;;8.76;44.25;97257.03;5095747;28;20052;-79
2021/04/08 09:19:09;;;;;;;3.67;2.30;;;;;;;8.82;43.41;97251.88;5077580;28;20040;-78
2021/04/08 09:21:53;;;;;;;4.25;2.30;;;;;;;8.91;39.86;97231.63;5095760;28;20480;-77
2021/04/08 09:24:22;;;;;;;3.60;1.98;;;;;;;9.03;42.46;97243.22;5095694;28;20396;-77
2021/04/08 09:26:56;;;;;;;2.83;2.22;;;;;;;9.01;41.31;97245.22;5095592;28;20047;-76
2021/04/08 09:29:31;;;;;;;2.95;2.20;;;;;;;8.81;40.32;97252.88;5095039;28;20039;-76
2021/04/08 09:32:29;;;;;;;5.47;3.10;;;;;;;8.27;37.56;97241.03;5095413;28;20035;-76
2021/04/08 09:35:05;;;;;;;3.78;2.20;;;;;;;7.94;40.74;97245.84;5088304;28;20040;-76
2021/04/08 09:37:41;;;;;;;3.35;2.28;;;;;;;7.78;39.84;97252.03;5095062;28;20480;-76
2021/04/08 09:40:07;;;;;;;2.67;1.92;;;;;;;7.48;42.10;97254.63;5095311;28;20028;-76
2021/04/08 09:42:39;;;;;;;3.60;2.30;;;;;;;7.29;41.54;97249.91;5077271;28;20036;-76
2021/04/08 09:45:06;;;;;;;3.03;1.80;;;;;;;7.22;42.09;97249.00;5076477;28;20044;-76
2021/04/08 09:47:33;;;;;;;4.55;2.70;;;;;;;7.08;42.23;97259.22;5095443;28;20040;-76
2021/04/08 09:50:00;;;;;;;2.95;2.00;;;;;;;6.87;42.07;97249.44;5066433;28;20106;-76
2021/04/08 09:52:26;;;;;;;5.07;2.40;;;;;;;6.73;42.39;97258.00;5094972;28;20058;-76
2021/04/08 09:54:56;;;;;;;6.55;3.17;;;;;;;6.57;42.30;97255.50;5095211;28;20464;-76
2021/04/08 09:57:40;;;;;;;3.83;3.40;;;;;;;6.52;41.86;97258.63;5094993;28;20044;-76
2021/04/08 10:00:12;;;;;;;5.68;3.20;;;;;;;6.41;42.05;97251.22;5095294;28;20043;-76
2021/04/08 10:02:54;;;;;;;2.90;2.10;;;;;;;6.37;42.78;97248.13;5094895;28;20047;-76
2021/04/08 10:05:20;;;;;;;2.90;1.92;;;;;;;6.36;42.67;97253.50;5093725;28;20110;-76
2021/04/08 10:07:49;;;;;;;2.00;1.90;;;;;;;6.28;42.42;97247.38;5094689;28;20036;-77
2021/04/08 10:10:15;;;;;;;4.43;2.08;;;;;;;6.26;42.51;97248.53;5094364;28;20457;-76
2021/04/08 10:12:42;;;;;;;4.10;2.10;;;;;;;6.27;42.57;97250.94;5094859;28;20465;-77
2021/04/08 10:15:09;;;;;;;5.22;2.30;;;;;;;6.31;42.58;97248.81;5094667;28;20048;-76
2021/04/08 10:17:37;;;;;;;2.53;1.98;;;;;;;6.42;42.63;97256.22;5094498;28;20043;-76
2021/04/08 10:20:06;;;;;;;2.40;2.20;;;;;;;6.55;42.45;97247.03;5094489;28;20043;-76
2021/04/08 10:22:44;;;;;;;2.90;2.33;;;;;;;6.62;41.92;97243.59;5094193;28;20052;-76
2021/04/08 10:25:12;;;;;;;3.17;2.30;;;;;;;6.76;42.48;97244.66;5086226;28;20139;-76
2021/04/08 10:27:39;;;;;;;3.22;1.80;;;;;;;6.85;42.16;97243.59;5094239;28;20395;-76
2021/04/08 10:30:17;;;;;;;4.05;2.40;;;;;;;6.98;41.55;97236.97;5094171;28;20055;-76
2021/04/08 10:32:44;;;;;;;3.47;2.60;;;;;;;7.02;41.98;97244.28;5076509;28;20039;-76
2021/04/08 10:35:25;;;;;;;5.55;2.20;;;;;;;7.14;41.27;97236.00;5094168;28;20380;-76
2021/04/08 10:38:04;;;;;;;5.07;3.00;;;;;;;7.18;40.91;97232.06;5094470;28;20043;-76
2021/04/08 10:40:31;;;;;;;4.18;2.30;;;;;;;7.18;41.75;97239.91;5083389;28;20051;-76
2021/04/08 10:43:14;;;;;;;3.05;1.95;;;;;;;7.17;40.85;97236.47;5094166;28;20044;-76
2021/04/08 10:45:57;;;;;;;5.50;2.50;;;;;;;7.20;41.05;97237.91;5093973;28;20476;-76
2021/04/08 10:48:26;;;;;;;3.92;2.05;;;;;;;7.22;41.62;97239.34;5094058;28;20036;-76
2021/04/08 10:50:53;;;;;;;2.70;2.30;;;;;;;7.22;41.53;97234.16;5075757;28;20035;-76
2021/04/08 10:53:25;;;;;;;2.67;2.40;;;;;;;7.17;40.89;97228.66;5092842;28;20044;-76
2021/04/08 10:55:53;;;;;;;2.25;2.03;;;;;;;7.19;41.45;97236.31;5092854;28;20044;-76
2021/04/08 10:58:27;;;;;;;2.75;2.20;;;;;;;7.21;41.16;97223.91;5092676;28;20055;-76
2021/04/08 11:00:55;;;;;;;3.22;2.08;;;;;;;7.30;41.13;97226.25;5094043;28;20039;-76
2021/04/08 11:03:23;;;;;;;2.20;1.70;;;;;;;7.41;40.76;97232.03;5093821;28;20032;-76
2021/04/08 11:05:49;;;;;;;2.42;2.20;;;;;;;7.43;40.40;97240.47;5092829;28;20059;-76
2021/04/08 11:08:16;;;;;;;4.60;2.10;;;;;;;7.38;40.29;97235.81;5094124;28;20043;-76
2021/04/08 11:10:43;;;;;;;3.80;2.15;;;;;;;7.52;40.61;97237.63;5087787;28;20035;-76
2021/04/08 11:13:11;;;;;;;2.97;2.15;;;;;;;7.88;40.53;97233.50;5082868;28;20043;-77
2021/04/08 11:15:39;;;;;;;4.20;2.30;;;;;;;8.01;39.53;97235.47;5088147;28;20040;-76
2021/04/08 11:18:15;;;;;;;4.40;2.90;;;;;;;7.96;38.77;97230.78;5089014;28;20040;-76
2021/04/08 11:20:44;;;;;;;2.83;2.35;;;;;;;7.93;39.70;97224.09;5071599;28;20039;-80
2021/04/08 11:23:11;;;;;;;3.70;2.28;;;;;;;7.74;39.51;97214.22;5092369;28;20048;-80
2021/04/08 11:25:39;;;;;;;2.70;2.38;;;;;;;7.57;39.45;97210.19;5092345;28;20044;-80
2021/04/08 11:28:07;;;;;;;3.08;2.10;;;;;;;7.41;39.48;97209.38;5092426;28;20040;-80
2021/04/08 11:30:40;;;;;;;3.20;2.08;;;;;;;7.31;39.70;97214.84;5066813;28;20055;-80
2021/04/08 11:33:12;;;;;;;4.03;2.35;;;;;;;7.18;39.85;97214.66;5074758;28;20392;-80
2021/04/08 11:35:41;;;;;;;3.15;2.00;;;;;;;7.14;39.90;97209.94;5087756;28;20047;-80
2021/04/08 11:38:18;;;;;;;3.55;2.10;;;;;;;7.16;39.91;97214.00;5092411;28;20043;-80
2021/04/08 11:40:46;;;;;;;2.30;2.05;;;;;;;7.13;40.02;97209.13;5074633;28;20106;-80
2021/04/08 11:43:26;;;;;;;2.10;1.95;;;;;;;7.13;40.05;97205.72;5091205;28;20044;-80
2021/04/08 11:45:57;;;;;;;3.67;2.55;;;;;;;7.01;40.13;97206.13;5084458;28;20024;-80
2021/04/08 11:48:44;;;;;;;2.83;2.15;;;;;;;6.95;40.32;97212.06;5091127;28;20039;-80
2021/04/08 11:51:11;;;;;;;3.22;1.85;;;;;;;6.98;40.52;97214.31;5053891;28;20032;-80
2021/04/08 11:53:39;;;;;;;5.35;2.22;;;;;;;7.06;40.34;97209.03;5095666;28;20053;-80
2021/04/08 11:56:31;;;;;;;3.50;2.70;;;;;;;7.18;40.55;97211.19;5095179;28;20052;-80